Time;durP1;ratioP1;P1;durP2;ratioP2;P2;SDS_P1;SDS_P2;PMS_P1;PMS_P2;Temp;Humidity;BMP_temperature;BMP_pressure;BME280_temperature;BME280_humidity;BME280_pressure;Samples;Min_cycle;Max_cycle;Signal;HPM_P1;HPM_P2
2021/08/14 00:01:35;;;;;;;12.30;9.75;;;;;;;20.13;85.48;101006.38;4922532;29;20064;-79
2021/08/14 00:04:02;;;;;;;12.32;10.00;;;;;;;20.14;85.83;101010.78;4925837;29;20052;-80
2021/08/14 00:06:28;;;;;;;13.05;9.98;;;;;;;20.13;86.30;101005.53;4931888;29;20072;-80
2021/08/14 00:08:55;;;;;;;12.52;10.20;;;;;;;20.13;86.48;101008.22;4937253;29;20048;-79
2021/08/14 00:11:21;;;;;;;12.25;10.68;;;;;;;20.11;86.45;101005.66;4936202;29;20043;-79
2021/08/14 00:13:48;;;;;;;13.02;10.48;;;;;;;20.12;86.83;101007.38;4923977;29;20055;-79
2021/08/14 00:16:15;;;;;;;16.33;11.80;;;;;;;20.11;87.09;100994.91;4919049;29;20041;-80
2021/08/14 00:18:42;;;;;;;16.60;11.73;;;;;;;20.05;87.23;100989.13;4927968;29;20092;-80
2021/08/14 00:21:08;;;;;;;15.27;11.82;;;;;;;20.10;87.87;100989.63;4919069;29;20048;-79
2021/08/14 00:23:35;;;;;;;16.70;12.18;;;;;;;20.09;87.94;100993.28;4940172;29;20435;-79
2021/08/14 00:26:02;;;;;;;19.08;11.80;;;;;;;20.08;87.77;100997.81;4933801;29;20068;-83
2021/08/14 00:28:28;;;;;;;14.10;11.20;;;;;;;20.03;88.06;100996.44;4923037;29;20052;-79
2021/08/14 00:30:55;;;;;;;13.65;11.10;;;;;;;19.99;88.18;101000.38;4915640;29;20130;-80
2021/08/14 00:33:22;;;;;;;11.93;10.15;;;;;;;19.84;88.20;101000.53;4916670;29;20765;-80
2021/08/14 00:35:49;;;;;;;13.52;10.23;;;;;;;19.73;88.50;101005.88;4911068;29;20083;-79
2021/08/14 00:38:15;;;;;;;11.40;10.02;;;;;;;19.61;88.85;100991.53;4914379;29;20054;-79
2021/08/14 00:40:42;;;;;;;11.77;9.88;;;;;;;19.58;90.10;100993.59;4905853;29;20043;-79
2021/08/14 00:43:08;;;;;;;13.70;10.25;;;;;;;19.58;90.41;100993.59;4917142;29;20054;-79
2021/08/14 00:45:42;;;;;;;14.55;10.32;;;;;;;19.58;90.30;100993.59;4933046;29;20060;-79
2021/08/14 00:48:29;;;;;;;13.07;10.05;;;;;;;19.55;90.85;100983.94;4909882;29;20099;-79
2021/08/14 00:50:55;;;;;;;11.90;9.98;;;;;;;19.55;90.61;100981.25;4894566;29;20052;-79
2021/08/14 00:53:22;;;;;;;13.05;10.88;;;;;;;19.56;90.86;100991.00;4912351;29;20052;-79
2021/08/14 00:55:49;;;;;;;12.05;10.25;;;;;;;19.55;90.52;100991.97;4913210;29;20056;-79
2021/08/14 00:58:16;;;;;;;12.88;10.98;;;;;;;19.55;90.43;100993.81;4911645;29;20144;-80
2021/08/14 01:00:43;;;;;;;14.55;10.95;;;;;;;19.52;90.37;100991.34;4913698;29;20044;-80
2021/08/14 01:03:10;;;;;;;15.90;10.15;;;;;;;19.47;90.47;100985.44;4919710;29;20115;-80
2021/08/14 01:05:38;;;;;;;13.90;10.85;;;;;;;19.41;90.72;100981.38;4912894;29;20064;-79
2021/08/14 01:08:06;;;;;;;14.60;10.70;;;;;;;19.39;91.03;100980.63;4915997;29;20515;-80
2021/08/14 01:10:33;;;;;;;16.02;11.45;;;;;;;19.36;91.48;100963.91;4926906;29;20563;-79
2021/08/14 01:12:59;;;;;;;18.83;11.73;;;;;;;19.40;91.58;100973.44;4931965;29;20055;-80
2021/08/14 01:15:28;;;;;;;13.25;11.13;;;;;;;19.38;91.56;100970.00;4911384;29;20055;-80
2021/08/14 01:17:57;;;;;;;15.55;11.00;;;;;;;19.38;91.68;100968.19;4914839;29;20134;-79
2021/08/14 01:20:23;;;;;;;15.40;11.18;;;;;;;19.32;90.77;100965.97;4922673;29;20044;-79
2021/08/14 01:22:51;;;;;;;16.85;11.20;;;;;;;19.17;91.23;100967.09;4924564;29;20070;-80
2021/08/14 01:25:19;;;;;;;16.25;11.60;;;;;;;19.05;91.91;100973.34;4922420;29;20704;-80
2021/08/14 01:27:46;;;;;;;13.00;10.80;;;;;;;19.04;92.97;100974.34;4923692;29;20472;-79
2021/08/14 01:30:14;;;;;;;15.00;11.05;;;;;;;19.04;93.61;100974.34;4916052;29;20059;-80
2021/08/14 01:32:41;;;;;;;17.90;11.30;;;;;;;19.02;93.06;100966.41;4913919;29;20054;-80
2021/08/14 01:35:08;;;;;;;15.40;12.32;;;;;;;18.92;92.42;100973.38;4895325;29;20079;-80
2021/08/14 01:37:35;;;;;;;17.05;12.88;;;;;;;18.79;93.56;100973.44;4917591;29;20080;-80
2021/08/14 01:40:04;;;;;;;13.82;11.45;;;;;;;18.77;94.01;100971.81;4913169;29;20062;-79
2021/08/14 01:42:31;;;;;;;14.23;11.52;;;;;;;18.81;94.18;100984.91;4893449;29;20060;-80
2021/08/14 01:44:58;;;;;;;15.25;11.85;;;;;;;18.79;93.87;100988.66;4917484;29;20055;-80
2021/08/14 01:47:24;;;;;;;13.88;11.13;;;;;;;18.74;93.97;100993.50;4908036;29;20047;-79
2021/08/14 01:49:51;;;;;;;16.08;11.68;;;;;;;18.72;92.72;100990.09;4915672;29;20063;-80
2021/08/14 01:52:18;;;;;;;14.98;11.18;;;;;;;18.64;91.66;100987.94;4901802;29;20062;-80
2021/08/14 01:54:46;;;;;;;12.10;10.00;;;;;;;18.62;92.18;100981.81;4909362;29;20305;-80
2021/08/14 01:57:13;;;;;;;13.70;10.00;;;;;;;18.66;92.38;100985.16;4913359;29;20055;-80
2021/08/14 01:59:54;;;;;;;14.15;10.13;;;;;;;18.66;91.34;100983.31;4913231;29;20056;-80
2021/08/14 02:02:20;;;;;;;13.20;9.93;;;;;;;18.64;90.80;100979.88;4927387;29;20056;-79
2021/08/14 02:04:47;;;;;;;13.25;10.02;;;;;;;18.65;90.03;100981.59;4921595;29;20063;-79
2021/08/14 02:07:14;;;;;;;13.45;9.55;;;;;;;18.58;89.31;100975.81;4928153;29;20066;-79
2021/08/14 02:09:40;;;;;;;14.23;10.00;;;;;;;18.54;89.26;100965.41;4921434;29;20056;-79
2021/08/14 02:12:07;;;;;;;12.95;9.50;;;;;;;18.51;89.12;100971.81;4919980;29;20063;-79
2021/08/14 02:14:33;;;;;;;12.50;9.82;;;;;;;18.48;89.32;100980.09;4922528;29;20143;-79
2021/08/14 02:17:00;;;;;;;12.32;9.77;;;;;;;18.48;nan;100982.75;4925117;29;20048;-80
2021/08/14 02:19:27;;;;;;;13.15;9.57;;;;;;;18.49;89.32;100976.44;4920922;29;20060;-79
2021/08/14 02:21:53;;;;;;;13.10;9.70;;;;;;;18.43;89.50;100982.22;4915235;29;20135;-80
2021/08/14 02:24:21;;;;;;;13.02;9.70;;;;;;;18.42;90.03;100975.16;4920223;29;20067;-78
2021/08/14 02:26:48;;;;;;;12.77;9.00;;;;;;;18.42;90.16;100977.81;4922317;29;20086;-80
2021/08/14 02:29:14;;;;;;;12.60;9.35;;;;;;;18.49;89.91;100983.63;4907973;29;20048;-79
2021/08/14 02:31:41;;;;;;;12.38;9.43;;;;;;;18.49;89.39;100989.84;4919504;29;20052;-80
2021/08/14 02:34:08;;;;;;;12.13;8.65;;;;;;;18.50;89.32;100977.31;4914905;29;20051;-79
2021/08/14 02:36:34;;;;;;;11.48;8.25;;;;;;;18.55;88.98;100984.06;4919454;29;20056;-80
2021/08/14 02:39:01;;;;;;;13.68;8.70;;;;;;;18.59;88.46;100987.41;4915063;29;20056;-80
2021/08/14 02:41:28;;;;;;;11.65;8.93;;;;;;;18.54;88.06;100979.66;4915755;29;20053;-80
2021/08/14 02:43:54;;;;;;;11.90;9.32;;;;;;;18.55;87.66;100985.88;4914977;29;20059;-80
2021/08/14 02:46:22;;;;;;;11.75;8.55;;;;;;;18.51;87.58;100993.28;4916448;29;20078;-80
2021/08/14 02:48:49;;;;;;;12.95;9.30;;;;;;;18.47;87.76;100993.59;4894600;29;20052;-80
2021/08/14 02:51:16;;;;;;;13.05;9.63;;;;;;;18.41;87.33;100994.91;4914320;29;20071;-79
2021/08/14 02:53:42;;;;;;;15.02;9.27;;;;;;;18.32;87.64;100990.16;4922472;29;20072;-80
2021/08/14 02:56:09;;;;;;;13.85;8.82;;;;;;;18.30;87.98;100984.06;4915593;29;20052;-79
2021/08/14 02:58:36;;;;;;;12.77;9.57;;;;;;;18.22;87.54;100989.97;4915895;29;20788;-80
2021/08/14 03:01:02;;;;;;;13.45;9.18;;;;;;;18.08;88.33;100998.09;4908693;29;20040;-80
2021/08/14 03:03:29;;;;;;;13.77;9.35;;;;;;;17.96;89.12;100987.34;4899128;29;20118;-80
2021/08/14 03:05:56;;;;;;;14.02;9.43;;;;;;;17.92;89.98;100993.91;4917663;29;20067;-80
2021/08/14 03:08:23;;;;;;;12.05;9.07;;;;;;;17.95;89.89;100991.84;4921933;29;20414;-79
2021/08/14 03:10:50;;;;;;;12.55;9.30;;;;;;;17.92;89.80;100994.75;4930312;29;20048;-79
2021/08/14 03:13:16;;;;;;;15.13;9.88;;;;;;;17.83;90.28;100992.69;4918934;29;20138;-79
2021/08/14 03:15:43;;;;;;;12.88;9.75;;;;;;;17.76;90.55;100994.94;4918634;29;20096;-79
2021/08/14 03:18:10;;;;;;;14.25;10.77;;;;;;;17.72;91.07;100998.78;4915648;29;20654;-80
2021/08/14 03:20:37;;;;;;;14.50;10.10;;;;;;;17.62;91.95;100997.66;4911348;29;20051;-80
2021/08/14 03:23:04;;;;;;;14.05;10.43;;;;;;;17.56;92.32;100991.81;4919094;29;20058;-80
2021/08/14 03:25:30;;;;;;;16.63;11.27;;;;;;;17.49;92.87;100994.91;4910641;29;20052;-80
2021/08/14 03:27:57;;;;;;;15.20;10.82;;;;;;;17.47;93.02;100987.97;4921859;29;20083;-79
2021/08/14 03:30:24;;;;;;;16.42;11.15;;;;;;;17.45;92.82;100997.91;4920995;29;20055;-79
2021/08/14 03:32:52;;;;;;;17.52;10.95;;;;;;;17.43;93.10;100989.09;4914021;29;20049;-80
2021/08/14 03:35:20;;;;;;;15.73;10.47;;;;;;;17.43;92.61;100989.09;4919736;29;20067;-80
2021/08/14 03:37:47;;;;;;;14.00;9.77;;;;;;;17.42;93.05;100987.38;4922876;29;20052;-80
2021/08/14 03:40:14;;;;;;;14.68;9.90;;;;;;;17.42;93.36;100992.75;4916228;29;20063;-79
2021/08/14 03:42:41;;;;;;;13.43;10.27;;;;;;;17.40;93.14;100981.28;4922091;29;20048;-80
2021/08/14 03:45:09;;;;;;;14.50;10.20;;;;;;;17.41;93.34;100989.22;4922600;29;20484;-80
2021/08/14 03:47:36;;;;;;;16.08;10.30;;;;;;;17.43;93.76;100987.28;4917498;29;20055;-80
2021/08/14 03:50:06;;;;;;;18.52;10.43;;;;;;;17.47;93.28;100987.97;4914819;29;20714;-80
2021/08/14 03:52:33;;;;;;;15.13;11.05;;;;;;;17.37;93.46;100978.78;4915001;29;20487;-79
2021/08/14 03:55:02;;;;;;;13.70;10.73;;;;;;;17.34;93.85;100979.84;4914612;29;20044;-80
2021/08/14 03:57:29;;;;;;;14.07;11.30;;;;;;;17.33;94.54;100983.47;4919679;29;20088;-80
2021/08/14 03:59:56;;;;;;;14.23;11.25;;;;;;;17.33;94.91;100978.13;4921596;29;20052;-79
2021/08/14 04:02:22;;;;;;;17.48;11.98;;;;;;;17.33;94.56;100977.28;4910634;29;20060;-79
2021/08/14 04:04:49;;;;;;;15.93;11.43;;;;;;;17.31;94.87;100981.88;4916041;29;20058;-79
2021/08/14 04:07:16;;;;;;;16.05;12.35;;;;;;;17.31;95.34;100980.06;4914450;29;20407;-79
2021/08/14 04:09:42;;;;;;;12.45;10.60;;;;;;;17.30;95.35;100972.13;4916369;29;20059;-79
2021/08/14 04:12:09;;;;;;;15.20;11.77;;;;;;;17.33;95.27;100978.13;4917797;29;20139;-79
2021/08/14 04:14:36;;;;;;;19.95;12.02;;;;;;;17.38;95.09;100977.84;4928254;29;20136;-79
2021/08/14 04:17:04;;;;;;;16.25;12.13;;;;;;;17.41;94.70;100977.63;4922747;29;20059;-79
2021/08/14 04:19:31;;;;;;;14.60;10.82;;;;;;;17.42;94.51;100977.53;4914854;29;20516;-79
2021/08/14 04:21:57;;;;;;;16.45;12.13;;;;;;;17.45;94.49;100979.16;4917489;29;20113;-79
2021/08/14 04:24:24;;;;;;;13.07;11.07;;;;;;;17.46;93.92;100986.22;4924701;29;20127;-79
2021/08/14 04:26:51;;;;;;;14.80;10.45;;;;;;;17.48;93.79;100978.94;4921514;29;20419;-79
2021/08/14 04:29:18;;;;;;;16.23;11.77;;;;;;;17.50;93.36;100977.00;4922193;29;20060;-79
2021/08/14 04:31:45;;;;;;;18.67;11.70;;;;;;;17.50;92.39;100983.22;4921519;29;20052;-79
2021/08/14 04:34:11;;;;;;;16.17;11.77;;;;;;;17.50;92.59;100977.00;4917188;29;20128;-79
2021/08/14 04:36:38;;;;;;;15.73;11.38;;;;;;;17.47;92.68;100970.03;4922947;29;20056;-79
2021/08/14 04:39:05;;;;;;;17.50;12.18;;;;;;;17.46;92.55;100973.72;4934350;29;20150;-78
2021/08/14 04:41:31;;;;;;;15.13;10.82;;;;;;;17.44;92.73;100967.59;4938228;29;20151;-80
2021/08/14 04:43:58;;;;;;;16.83;11.52;;;;;;;17.47;93.19;100969.22;4927918;29;20058;-79
2021/08/14 04:46:25;;;;;;;17.25;11.38;;;;;;;17.48;93.01;100971.75;4921403;29;20055;-80
2021/08/14 04:48:52;;;;;;;16.70;10.98;;;;;;;17.50;93.01;100968.97;4920737;29;20080;-79
2021/08/14 04:51:18;;;;;;;15.73;11.57;;;;;;;17.58;93.26;100976.53;4917487;29;20043;-79
2021/08/14 04:53:45;;;;;;;14.05;11.02;;;;;;;17.64;93.02;100963.59;4919806;29;20407;-79
2021/08/14 04:56:12;;;;;;;15.70;11.02;;;;;;;17.75;92.72;100966.44;4917919;29;20201;-79
2021/08/14 04:58:38;;;;;;;14.90;10.85;;;;;;;17.79;92.07;100957.19;4917842;29;20055;-79
2021/08/14 05:01:05;;;;;;;15.18;11.15;;;;;;;17.87;90.84;100959.38;4915279;29;20044;-79
2021/08/14 05:03:32;;;;;;;16.13;10.63;;;;;;;17.90;90.95;100958.31;4912521;29;20096;-81
2021/08/14 05:06:00;;;;;;;17.13;11.30;;;;;;;17.99;90.73;100963.00;4923358;29;20508;-80
2021/08/14 05:08:26;;;;;;;13.50;10.68;;;;;;;18.08;90.26;100973.13;4924562;29;20052;-78
2021/08/14 05:10:53;;;;;;;16.55;11.52;;;;;;;18.11;89.83;100964.84;4918048;29;20113;-78
2021/08/14 05:13:20;;;;;;;16.60;11.38;;;;;;;18.07;89.50;100955.31;4918048;29;20066;-78
2021/08/14 05:15:46;;;;;;;15.48;11.45;;;;;;;18.04;89.55;100968.94;4917816;29;20063;-78
2021/08/14 05:18:16;;;;;;;12.75;10.82;;;;;;;18.03;90.13;100964.53;4926195;29;20044;-79
2021/08/14 05:20:43;;;;;;;14.77;10.77;;;;;;;17.98;89.45;100963.97;4915151;29;20044;-79
2021/08/14 05:23:12;;;;;;;11.83;10.13;;;;;;;17.97;90.11;100963.13;4899975;29;20222;-79
2021/08/14 05:25:39;;;;;;;14.10;10.10;;;;;;;18.02;90.41;100958.31;4915240;29;20789;-79
2021/08/14 05:28:06;;;;;;;14.10;11.18;;;;;;;18.07;90.59;100960.69;4919970;29;20050;-79
2021/08/14 05:30:33;;;;;;;15.93;10.68;;;;;;;18.09;90.03;100964.13;4914393;29;20135;-79
2021/08/14 05:33:00;;;;;;;14.25;10.32;;;;;;;18.15;90.18;100971.72;4926344;29;20080;-80
2021/08/14 05:35:26;;;;;;;12.32;9.70;;;;;;;18.14;90.01;100964.63;4922363;29;20115;-79
2021/08/14 05:37:53;;;;;;;13.60;9.85;;;;;;;18.26;89.79;100971.00;4918305;29;20054;-80
2021/08/14 05:40:20;;;;;;;13.13;10.73;;;;;;;18.32;89.40;100971.41;4919381;29;20052;-80
2021/08/14 05:42:47;;;;;;;14.27;10.05;;;;;;;18.38;89.58;100962.94;4921137;29;20111;-80
2021/08/14 05:45:22;;;;;;;12.57;10.40;;;;;;;18.45;89.06;100966.03;4921977;29;20052;-81
2021/08/14 05:47:52;;;;;;;12.98;10.27;;;;;;;18.46;88.21;100963.25;4916866;29;20055;-79
2021/08/14 05:50:19;;;;;;;13.13;9.75;;;;;;;18.50;88.77;100969.25;4919109;29;20063;-79
2021/08/14 05:52:46;;;;;;;11.88;9.65;;;;;;;18.53;88.88;100961.84;4922220;29;20132;-79
2021/08/14 05:55:13;;;;;;;13.63;11.35;;;;;;;18.60;88.00;100970.34;4914248;29;20056;-79
2021/08/14 05:57:39;;;;;;;14.07;10.52;;;;;;;18.62;87.89;100976.44;4917896;29;20046;-79
2021/08/14 06:00:06;;;;;;;13.93;10.43;;;;;;;18.69;88.37;100974.22;4914157;29;20059;-79
2021/08/14 06:02:34;;;;;;;14.57;10.70;;;;;;;18.77;87.89;100980.72;4918198;29;20048;-80
2021/08/14 06:05:02;;;;;;;14.85;10.10;;;;;;;18.83;87.29;100963.34;4896042;29;20060;-79
2021/08/14 06:07:29;;;;;;;13.05;10.48;;;;;;;18.91;86.82;100979.72;4909576;29;20049;-79
2021/08/14 06:09:55;;;;;;;12.77;10.55;;;;;;;18.96;86.80;100969.53;4919067;29;20052;-79
2021/08/14 06:12:22;;;;;;;13.32;10.52;;;;;;;19.02;86.62;100979.81;4924081;29;20052;-79
2021/08/14 06:14:49;;;;;;;13.63;10.00;;;;;;;19.12;86.96;100975.50;4927636;29;20532;-79
2021/08/14 06:17:16;;;;;;;18.65;12.70;;;;;;;19.21;86.60;100977.47;4923329;29;20504;-79
2021/08/14 06:19:43;;;;;;;20.02;11.52;;;;;;;19.33;85.36;100975.75;4920685;29;20046;-79
2021/08/14 06:22:10;;;;;;;14.18;10.57;;;;;;;19.41;85.26;100976.00;4922648;29;20044;-79
2021/08/14 06:24:36;;;;;;;13.13;10.02;;;;;;;19.60;84.99;100979.06;4926082;29;20142;-79
2021/08/14 06:27:03;;;;;;;15.90;12.02;;;;;;;19.89;84.80;100971.47;4929808;29;20062;-79
2021/08/14 06:29:30;;;;;;;18.27;12.48;;;;;;;20.28;82.41;100969.38;4903512;29;20052;-78
2021/08/14 06:31:57;;;;;;;16.25;12.60;;;;;;;20.74;81.10;100969.31;4926771;29;20091;-79
2021/08/14 06:34:23;;;;;;;17.92;12.95;;;;;;;21.15;78.56;100971.31;4924600;29;20054;-79
2021/08/14 06:36:50;;;;;;;17.98;13.10;;;;;;;21.45;76.65;100967.09;4923602;29;20120;-79
2021/08/14 06:39:17;;;;;;;16.25;12.02;;;;;;;21.77;76.43;100970.66;4929693;29;20076;-79
2021/08/14 06:41:43;;;;;;;13.23;11.10;;;;;;;22.15;75.25;100963.84;4921363;29;20051;-78
2021/08/14 06:44:12;;;;;;;19.73;13.10;;;;;;;22.57;72.96;100973.59;4913767;29;20048;-79
2021/08/14 06:46:39;;;;;;;17.60;13.05;;;;;;;22.91;72.27;100963.41;4920415;29;20052;-79
2021/08/14 06:49:05;;;;;;;16.17;12.15;;;;;;;23.15;70.19;100970.25;4916980;29;20045;-79
2021/08/14 06:51:32;;;;;;;13.32;11.27;;;;;;;23.33;69.30;100971.28;4916385;29;20056;-79
2021/08/14 06:53:59;;;;;;;13.90;11.00;;;;;;;23.56;67.38;100980.03;4923173;29;20421;-84
2021/08/14 06:56:26;;;;;;;13.77;10.98;;;;;;;23.80;66.18;100966.94;4918463;29;20980;-82
2021/08/14 06:58:56;;;;;;;14.55;10.93;;;;;;;24.24;64.21;100967.34;4912175;29;20059;-83
2021/08/14 07:01:23;;;;;;;15.82;11.93;;;;;;;24.33;63.08;100966.47;4921451;29;20076;-79
2021/08/14 07:03:50;;;;;;;16.15;12.63;;;;;;;24.05;64.54;100965.50;4922945;29;20064;-80
2021/08/14 07:06:19;;;;;;;17.25;12.60;;;;;;;24.14;63.95;100968.19;4927442;29;20532;-82
2021/08/14 07:08:46;;;;;;;16.05;12.30;;;;;;;24.26;64.28;100974.31;4919427;29;20052;-86
2021/08/14 07:11:14;;;;;;;13.02;11.63;;;;;;;24.50;63.76;100970.25;4918238;29;20048;-87
2021/08/14 07:13:41;;;;;;;13.88;11.52;;;;;;;24.65;63.12;100956.09;4919836;29;20052;-84
2021/08/14 07:16:08;;;;;;;14.98;12.23;;;;;;;24.78;63.52;100958.44;4928934;29;20054;-83
2021/08/14 07:18:35;;;;;;;14.32;12.00;;;;;;;24.80;63.10;100970.00;4928838;29;20114;-84
2021/08/14 07:21:02;;;;;;;13.25;11.75;;;;;;;24.97;63.64;100971.94;4924711;29;20059;-84
2021/08/14 07:23:29;;;;;;;13.00;11.38;;;;;;;25.18;62.38;100977.94;4929016;29;20138;-86
2021/08/14 07:26:19;;;;;;;14.57;11.27;;;;;;;25.28;62.21;100969.75;4930294;29;20043;-84
2021/08/14 07:28:46;;;;;;;13.13;11.32;;;;;;;25.45;61.41;100968.06;4931649;29;20044;-85
2021/08/14 07:31:13;;;;;;;18.58;13.50;;;;;;;25.44;60.68;100969.94;4916826;29;20107;-85
2021/08/14 07:33:41;;;;;;;15.68;12.18;;;;;;;25.39;60.85;100958.69;4923503;29;20411;-83
2021/08/14 07:36:08;;;;;;;16.13;12.65;;;;;;;25.40;60.44;100965.81;4920339;29;20050;-84
2021/08/14 07:38:35;;;;;;;15.85;12.70;;;;;;;25.32;60.98;100963.03;4917287;29;20055;-85
2021/08/14 07:41:02;;;;;;;17.90;13.30;;;;;;;25.26;60.44;100963.63;4921110;29;20143;-86
2021/08/14 07:43:29;;;;;;;16.92;12.27;;;;;;;25.18;62.16;100958.97;4917397;29;20058;-85
2021/08/14 07:45:55;;;;;;;14.15;11.93;;;;;;;25.26;61.58;100960.91;4918147;29;20059;-85
2021/08/14 07:48:23;;;;;;;16.02;12.45;;;;;;;25.35;60.90;100956.41;4928625;29;20052;-85
2021/08/14 07:50:50;;;;;;;22.13;12.50;;;;;;;25.38;59.72;100961.53;4915562;29;20769;-85
2021/08/14 07:53:16;;;;;;;17.77;13.60;;;;;;;25.13;60.11;100965.84;4920677;29;20048;-85
2021/08/14 07:55:43;;;;;;;18.40;12.25;;;;;;;24.93;59.82;100966.94;4918237;29;20120;-84
2021/08/14 07:58:13;;;;;;;15.48;11.35;;;;;;;24.79;59.53;100961.00;4922713;29;20058;-84
2021/08/14 08:00:40;;;;;;;15.27;11.85;;;;;;;24.73;59.23;100958.91;4926801;29;20062;-84
2021/08/14 08:03:08;;;;;;;12.85;10.60;;;;;;;24.65;61.23;100958.81;4920399;29;20127;-84
2021/08/14 08:05:36;;;;;;;14.05;10.63;;;;;;;24.93;61.95;100962.38;4926867;29;20054;-86
2021/08/14 08:08:22;;;;;;;15.65;11.65;;;;;;;25.29;60.82;100957.91;4934694;29;20061;-87
2021/08/14 08:10:49;;;;;;;14.40;10.75;;;;;;;25.50;60.32;100961.16;4926599;29;20062;-87
2021/08/14 08:13:16;;;;;;;17.35;12.63;;;;;;;25.59;59.01;100963.97;4941822;29;20058;-86
2021/08/14 08:15:46;;;;;;;12.38;9.57;;;;;;;25.56;56.32;100962.41;4933493;29;20051;-85
2021/08/14 08:18:13;;;;;;;9.95;8.88;;;;;;;25.45;57.60;100957.22;4915834;29;20093;-84
2021/08/14 08:20:40;;;;;;;10.15;9.13;;;;;;;25.60;58.33;100957.53;4922217;29;20096;-85
2021/08/14 08:23:07;;;;;;;12.93;9.88;;;;;;;25.74;58.53;100962.44;4921730;29;20056;-84
2021/08/14 08:25:34;;;;;;;11.98;10.18;;;;;;;25.76;57.62;100955.84;4907492;29;20056;-85
2021/08/14 08:28:09;;;;;;;14.15;9.85;;;;;;;25.82;57.30;100959.78;4918302;29;20056;-84
2021/08/14 08:30:39;;;;;;;13.40;10.15;;;;;;;26.05;57.39;100944.72;4913096;29;20050;-87
2021/08/14 08:33:06;;;;;;;11.35;9.55;;;;;;;26.36;56.79;100952.41;4926952;29;20096;-86
2021/08/14 08:35:32;;;;;;;15.75;9.55;;;;;;;26.53;56.07;100948.78;4921592;29;20120;-84
2021/08/14 08:37:59;;;;;;;11.68;9.20;;;;;;;26.46;56.66;100940.41;4935188;29;20054;-82
2021/08/14 08:40:31;;;;;;;11.65;9.38;;;;;;;26.27;56.25;100943.34;4924006;29;20052;-82
2021/08/14 08:42:58;;;;;;;12.10;8.88;;;;;;;26.16;56.98;100932.72;4948658;29;20103;-81
2021/08/14 08:45:26;;;;;;;9.55;8.40;;;;;;;26.03;55.64;100935.03;4940305;29;20448;-81
2021/08/14 08:47:56;;;;;;;11.18;8.00;;;;;;;25.93;55.69;100924.28;4942870;29;20096;-82
2021/08/14 08:50:27;;;;;;;12.27;8.20;;;;;;;25.97;56.48;100933.81;4935055;29;20112;-82
2021/08/14 08:52:54;;;;;;;10.63;7.35;;;;;;;26.02;56.24;100945.03;4929252;29;20054;-81
2021/08/14 08:55:23;;;;;;;11.05;8.20;;;;;;;26.04;56.25;100943.00;4925307;29;20055;-82
2021/08/14 08:58:13;;;;;;;9.95;7.60;;;;;;;26.17;56.70;100943.44;4923599;29;20096;-81
2021/08/14 09:01:06;;;;;;;8.55;7.55;;;;;;;26.41;55.91;100941.94;4922642;29;20055;-82
2021/08/14 09:03:34;;;;;;;9.63;7.68;;;;;;;26.60;54.86;100930.84;4901266;29;20493;-83
2021/08/14 09:06:01;;;;;;;12.88;7.80;;;;;;;26.60;55.27;100930.84;4923006;29;20044;-83
2021/08/14 09:08:28;;;;;;;12.32;9.18;;;;;;;26.50;55.18;100932.81;4911509;29;20051;-83
2021/08/14 09:11:08;;;;;;;9.68;8.30;;;;;;;26.35;55.97;100934.41;4918155;29;20044;-84
2021/08/14 09:13:35;;;;;;;11.55;8.75;;;;;;;26.18;56.26;100928.84;4928536;29;20130;-84
2021/08/14 09:16:22;;;;;;;12.07;8.43;;;;;;;26.15;56.74;100928.31;4925527;29;20119;-83
2021/08/14 09:18:56;;;;;;;11.32;9.02;;;;;;;26.09;57.03;100928.97;4921352;29;20099;-83
2021/08/14 09:21:34;;;;;;;10.10;8.63;;;;;;;26.03;57.47;100919.59;4922672;29;20079;-83
2021/08/14 09:24:07;;;;;;;11.35;8.65;;;;;;;26.02;57.94;100917.03;4912367;29;20079;-82
2021/08/14 09:26:46;;;;;;;11.13;8.70;;;;;;;26.01;57.63;100918.03;4903439;29;20082;-82
2021/08/14 09:29:14;;;;;;;11.85;8.82;;;;;;;26.00;58.11;100917.19;4920440;29;20052;-82
2021/08/14 09:31:49;;;;;;;11.40;8.65;;;;;;;26.01;58.07;100918.91;4908695;29;20055;-82
2021/08/14 09:34:23;;;;;;;11.73;8.25;;;;;;;26.01;57.40;100916.19;4919867;29;20139;-83
2021/08/14 09:37:04;;;;;;;11.90;8.07;;;;;;;25.93;56.84;100916.13;4913912;29;20052;-84
2021/08/14 09:39:34;;;;;;;11.20;7.82;;;;;;;25.85;57.03;100910.63;4912478;29;20105;-89
2021/08/14 09:42:05;;;;;;;10.63;7.57;;;;;;;25.73;57.61;100910.03;4918769;29;20112;-81
2021/08/14 09:44:34;;;;;;;9.00;6.82;;;;;;;25.70;57.38;100907.63;4925180;29;20052;-81
2021/08/14 09:47:11;;;;;;;10.27;6.95;;;;;;;25.73;56.90;100911.91;4929985;29;20056;-81
2021/08/14 09:49:57;;;;;;;10.43;6.90;;;;;;;25.70;56.18;100904.94;4928769;29;20114;-83
2021/08/14 09:52:26;;;;;;;9.32;6.90;;;;;;;25.74;56.61;100908.19;4926561;29;20048;-83
2021/08/14 09:55:14;;;;;;;8.38;6.43;;;;;;;25.77;56.48;100902.44;4933418;29;20075;-84
2021/08/14 09:57:42;;;;;;;7.53;5.68;;;;;;;25.85;56.61;100897.06;4927526;29;20051;-84
2021/08/14 10:00:09;;;;;;;12.00;7.03;;;;;;;25.96;56.20;100907.69;4923004;29;20088;-83
2021/08/14 10:03:33;;;;;;;8.02;5.97;;;;;;;26.07;55.15;100902.00;4924564;29;20048;-82
2021/08/14 10:06:03;;;;;;;6.63;5.57;;;;;;;26.13;54.88;100898.63;4924756;29;20393;-83
2021/08/14 10:08:49;;;;;;;8.43;5.75;;;;;;;26.18;53.89;100887.28;4924454;29;20052;-84
2021/08/14 10:11:18;;;;;;;7.90;5.75;;;;;;;26.19;53.73;100889.84;4919524;29;20033;-89
2021/08/14 10:13:45;;;;;;;7.90;5.25;;;;;;;26.18;51.52;100885.41;4940993;29;20096;-87
2021/08/14 10:16:13;;;;;;;7.15;5.38;;;;;;;26.17;52.19;100877.44;4911739;29;20061;-83
2021/08/14 10:18:43;;;;;;;5.65;4.78;;;;;;;26.19;52.18;100878.13;4914901;29;20055;-83
2021/08/14 10:21:35;;;;;;;6.72;4.63;;;;;;;26.23;50.17;100868.66;4929580;29;20069;-86
2021/08/14 10:24:14;;;;;;;7.35;4.72;;;;;;;26.24;48.97;100869.50;4925068;29;20131;-86
2021/08/14 10:26:41;;;;;;;5.82;4.40;;;;;;;26.33;48.40;100876.69;4928296;29;20388;-84
2021/08/14 10:29:07;;;;;;;6.93;4.40;;;;;;;26.46;47.47;100871.66;4922009;29;20055;-84
2021/08/14 10:31:35;;;;;;;6.65;4.28;;;;;;;26.56;48.29;100861.53;4937316;29;20058;-82
2021/08/14 10:34:12;;;;;;;6.57;4.57;;;;;;;26.63;46.59;100850.84;4929287;29;20059;-82
2021/08/14 10:36:41;;;;;;;5.72;4.20;;;;;;;26.67;48.79;100855.81;4914771;29;20071;-81
2021/08/14 10:39:16;;;;;;;8.30;4.75;;;;;;;26.73;48.93;100849.72;4927599;29;20099;-81
2021/08/14 10:42:13;;;;;;;5.63;4.50;;;;;;;26.80;47.50;100849.88;4927221;29;20052;-83
2021/08/14 10:44:52;;;;;;;8.05;4.57;;;;;;;26.88;47.03;100847.22;4929637;29;20107;-81
2021/08/14 10:47:32;;;;;;;9.70;4.70;;;;;;;26.83;45.75;100831.41;4929093;29;20048;-81
2021/08/14 10:50:01;;;;;;;6.00;4.43;;;;;;;26.87;45.17;100819.19;4915447;29;20140;-81
2021/08/14 10:52:37;;;;;;;8.70;4.47;;;;;;;27.02;45.99;100826.72;4916594;29;20114;-83
2021/08/14 10:55:12;;;;;;;8.40;4.65;;;;;;;27.02;45.05;100818.56;4929312;29;20076;-82
2021/08/14 10:57:48;;;;;;;4.95;4.40;;;;;;;27.19;44.75;100829.28;4927597;29;20071;-83
2021/08/14 11:00:27;;;;;;;5.30;4.25;;;;;;;27.21;45.33;100816.38;4915535;29;20063;-82
2021/08/14 11:03:16;;;;;;;8.38;4.47;;;;;;;27.29;44.51;100830.97;4915315;29;20473;-85
2021/08/14 11:06:16;;;;;;;;;;;;;;;27.37;44.42;100829.13;4927813;29;20056;-83
2021/08/14 11:08:46;;;;;;;5.43;4.35;;;;;;;27.27;43.43;100809.38;4924141;29;19935;-83
2021/08/14 11:11:36;;;;;;;7.82;4.43;;;;;;;27.43;43.61;100813.97;4916422;29;20401;-87
2021/08/14 11:14:11;;;;;;;7.75;4.95;;;;;;;27.53;43.46;100814.66;4920477;29;20062;-82
2021/08/14 11:17:01;;;;;;;5.13;4.38;;;;;;;27.64;43.76;100816.19;4917223;29;20083;-83
2021/08/14 11:19:51;;;;;;;9.75;4.22;;;;;;;27.64;41.99;100808.88;4906047;29;20068;-84
2021/08/14 11:22:28;;;;;;;6.53;4.22;;;;;;;27.70;42.15;100800.03;4919338;29;20144;-88
2021/08/14 11:25:21;;;;;;;6.20;4.10;;;;;;;27.83;42.42;100797.63;4902420;29;20433;-87